Time;durP1;ratioP1;P1;durP2;ratioP2;P2;SDS_P1;SDS_P2;PMS_P1;PMS_P2;Temp;Humidity;BMP_temperature;BMP_pressure;BME280_temperature;BME280_humidity;BME280_pressure;Samples;Min_cycle;Max_cycle;Signal;HPM_P1;HPM_P2
2023/11/20 00:01:05;;;;;;;;;;;;;;;;;;5045151;27;89358;-60
2023/11/20 00:03:31;;;;;;;;;;;;;;;;;;5032336;27;92219;-60
2023/11/20 00:05:56;;;;;;;;;;;;;;;;;;5041658;27;89347;-60
2023/11/20 00:08:22;;;;;;;;;;;;;;;;;;5045894;27;89562;-62
2023/11/20 00:10:47;;;;;;;;;;;;;;;;;;5045148;27;89520;-63
2023/11/20 00:13:12;;;;;;;;;;;;;;;;;;5045548;27;89038;-63
2023/11/20 00:15:37;;;;;;;;;;;;;;;;;;5041383;27;90148;-63
2023/11/20 00:18:04;;;;;;;;;;;;;;;;;;5045168;27;89571;-63
2023/11/20 00:20:31;;;;;;;;;;;;;;;;;;5044665;27;90226;-60
2023/11/20 00:22:56;;;;;;;;;;;;;;;;;;5046864;27;89491;-60
2023/11/20 00:25:21;;;;;;;;;;;;;;;;;;5044850;27;89655;-60
2023/11/20 00:27:46;;;;;;;;;;;;;;;;;;5044566;27;89387;-61
2023/11/20 00:30:12;;;;;;;;;;;;;;;;;;5038660;27;89609;-61
2023/11/20 00:32:37;;;;;;;;;;;;;;;;;;5033290;27;89967;-61
2023/11/20 00:35:03;;;;;;;;;;;;;;;;;;5036074;27;89736;-62
2023/11/20 00:37:28;;;;;;;;;;;;;;;;;;5028599;27;89892;-61
2023/11/20 00:39:53;;;;;;;;;;;;;;;;;;5037632;27;89362;-60
2023/11/20 00:42:18;;;;;;;;;;;;;;;;;;5036462;27;89544;-60
2023/11/20 00:44:44;;;;;;;;;;;;;;;;;;5035416;27;89503;-60
2023/11/20 00:47:09;;;;;;;;;;;;;;;;;;5033111;27;91161;-60
2023/11/20 00:49:34;;;;;;;;;;;;;;;;;;5032295;27;90482;-62
2023/11/20 00:52:01;;;;;;;;;;;;;;;;;;5034608;27;90474;-60
2023/11/20 00:54:26;;;;;;;;;;;;;;;;;;5025823;27;89540;-61
2023/11/20 00:56:51;;;;;;;;;;;;;;;;;;5035721;27;90256;-59
2023/11/20 00:59:16;;;;;;;;;;;;;;;;;;5043543;27;89725;-61
2023/11/20 01:01:42;;;;;;;;;;;;;;;;;;5037481;27;89548;-60
2023/11/20 01:04:07;;;;;;;;;;;;;;;;;;5034044;27;90197;-60
2023/11/20 01:06:41;;;;;;;;;;;;;;;;;;5027844;27;89605;-60
2023/11/20 01:09:07;;;;;;;;;;;;;;;;;;5034542;27;89933;-59
2023/11/20 01:11:32;;;;;;;;;;;;;;;;;;5040048;27;90133;-60
2023/11/20 01:14:01;;;;;;;;;;;;;;;;;;5039590;27;89650;-60
2023/11/20 01:16:26;;;;;;;;;;;;;;;;;;5035407;27;90744;-63
2023/11/20 01:18:53;;;;;;;;;;;;;;;;;;5036569;27;89271;-62
2023/11/20 01:21:19;;;;;;;;;;;;;;;;;;5036127;27;89607;-60
2023/11/20 01:23:44;;;;;;;;;;;;;;;;;;5040530;27;90693;-60
2023/11/20 01:26:09;;;;;;;;;;;;;;;;;;5040027;27;90118;-60
2023/11/20 01:28:35;;;;;;;;;;;;;;;;;;5044872;27;91353;-62
2023/11/20 01:31:00;;;;;;;;;;;;;;;;;;5040454;27;89621;-59
2023/11/20 01:33:25;;;;;;;;;;;;;;;;;;5039929;27;89882;-61
2023/11/20 01:35:51;;;;;;;;;;;;;;;;;;5040950;27;89443;-62
2023/11/20 01:38:16;;;;;;;;;;;;;;;;;;5038339;27;89629;-60
2023/11/20 01:40:41;;;;;;;;;;;;;;;;;;5035575;27;89389;-60
2023/11/20 01:43:06;;;;;;;;;;;;;;;;;;5037799;27;89470;-62
2023/11/20 01:45:33;;;;;;;;;;;;;;;;;;5037851;27;89018;-62
2023/11/20 01:47:59;;;;;;;;;;;;;;;;;;5037354;27;89095;-62
2023/11/20 01:50:25;;;;;;;;;;;;;;;;;;5038854;27;89755;-62
2023/11/20 01:52:50;;;;;;;;;;;;;;;;;;5039472;27;89467;-64
2023/11/20 01:55:16;;;;;;;;;;;;;;;;;;5036017;27;89527;-63
2023/11/20 01:57:43;;;;;;;;;;;;;;;;;;5046370;27;89119;-63
2023/11/20 02:00:09;;;;;;;;;;;;;;;;;;5046887;27;89683;-63
2023/11/20 02:02:38;;;;;;;;;;;;;;;;;;5048061;27;90755;-62
2023/11/20 02:05:04;;;;;;;;;;;;;;;;;;5047721;27;90135;-60
2023/11/20 02:07:30;;;;;;;;;;;;;;;;;;5048243;27;90222;-59
2023/11/20 02:09:56;;;;;;;;;;;;;;;;;;5050275;27;90508;-61
2023/11/20 02:12:21;;;;;;;;;;;;;;;;;;5028986;27;90312;-60
2023/11/20 02:14:47;;;;;;;;;;;;;;;;;;5047277;27;89558;-60
2023/11/20 02:17:12;;;;;;;;;;;;;;;;;;5048087;27;89117;-59
2023/11/20 02:19:38;;;;;;;;;;;;;;;;;;5046063;27;89162;-61
2023/11/20 02:22:04;;;;;;;;;;;;;;;;;;5026848;27;90626;-61
2023/11/20 02:24:29;;;;;;;;;;;;;;;;;;5026235;28;89334;-60
2023/11/20 02:27:13;;;;;;;;;;;;;;;;;;5033488;27;89409;-60
2023/11/20 02:29:41;;;;;;;;;;;;;;;;;;5045656;27;89408;-62
2023/11/20 02:32:06;;;;;;;;;;;;;;;;;;5050151;27;90329;-60
2023/11/20 02:34:31;;;;;;;;;;;;;;;;;;5047771;27;89450;-60
2023/11/20 02:36:57;;;;;;;;;;;;;;;;;;5046971;27;89204;-61
2023/11/20 02:39:23;;;;;;;;;;;;;;;;;;5048288;27;89718;-60
2023/11/20 02:41:50;;;;;;;;;;;;;;;;;;5048009;27;90012;-61
2023/11/20 02:44:15;;;;;;;;;;;;;;;;;;5046951;27;90415;-60
2023/11/20 02:46:43;;;;;;;;;;;;;;;;;;5048158;27;90180;-59
2023/11/20 02:49:08;;;;;;;;;;;;;;;;;;5046582;27;89837;-61
2023/11/20 02:51:33;;;;;;;;;;;;;;;;;;5046950;27;89282;-61
2023/11/20 02:53:58;;;;;;;;;;;;;;;;;;5050115;27;89076;-60
2023/11/20 02:56:24;;;;;;;;;;;;;;;;;;5047020;27;90154;-60
2023/11/20 02:58:50;;;;;;;;;;;;;;;;;;5046669;27;88984;-60
2023/11/20 03:01:15;;;;;;;;;;;;;;;;;;5046602;27;89362;-60
2023/11/20 03:03:40;;;;;;;;;;;;;;;;;;5045540;27;89660;-60
2023/11/20 03:06:06;;;;;;;;;;;;;;;;;;5047040;27;89505;-60
2023/11/20 03:08:31;;;;;;;;;;;;;;;;;;5046903;27;89500;-62
2023/11/20 03:10:56;;;;;;;;;;;;;;;;;;5046789;27;89232;-61
2023/11/20 03:13:23;;;;;;;;;;;;;;;;;;5046928;27;89220;-59
2023/11/20 03:15:49;;;;;;;;;;;;;;;;;;5050012;27;90823;-59
2023/11/20 03:18:15;;;;;;;;;;;;;;;;;;5046920;27;89116;-61
2023/11/20 03:20:40;;;;;;;;;;;;;;;;;;5046470;27;89601;-59
2023/11/20 03:23:05;;;;;;;;;;;;;;;;;;5046440;27;89677;-59
2023/11/20 03:25:30;;;;;;;;;;;;;;;;;;5046776;27;89020;-63
2023/11/20 03:27:55;;;;;;;;;;;;;;;;;;5046438;27;89091;-63
2023/11/20 03:30:22;;;;;;;;;;;;;;;;;;5046625;27;89696;-62
2023/11/20 03:32:47;;;;;;;;;;;;;;;;;;5045484;27;89033;-63
2023/11/20 03:35:12;;;;;;;;;;;;;;;;;;5048245;27;89506;-62
2023/11/20 03:37:38;;;;;;;;;;;;;;;;;;5045640;27;89550;-62
2023/11/20 03:40:03;;;;;;;;;;;;;;;;;;5045408;27;89535;-62
2023/11/20 03:42:29;;;;;;;;;;;;;;;;;;5045708;27;90278;-62
2023/11/20 03:44:54;;;;;;;;;;;;;;;;;;5046321;27;89563;-63
2023/11/20 03:47:19;;;;;;;;;;;;;;;;;;5046234;27;90222;-60
2023/11/20 03:49:45;;;;;;;;;;;;;;;;;;5045692;27;89195;-61
2023/11/20 03:52:10;;;;;;;;;;;;;;;;;;5045761;27;89021;-59
2023/11/20 03:54:35;;;;;;;;;;;;;;;;;;5046646;27;89539;-60
2023/11/20 03:57:00;;;;;;;;;;;;;;;;;;5049269;27;90334;-61
2023/11/20 03:59:25;;;;;;;;;;;;;;;;;;5046609;27;90653;-60
2023/11/20 04:01:52;;;;;;;;;;;;;;;;;;5046438;27;90980;-61
2023/11/20 04:04:17;;;;;;;;;;;;;;;;;;5046422;27;89490;-62
2023/11/20 04:06:42;;;;;;;;;;;;;;;;;;5046210;27;91231;-59
2023/11/20 04:09:07;;;;;;;;;;;;;;;;;;5045820;27;89525;-61
2023/11/20 04:11:33;;;;;;;;;;;;;;;;;;5045729;27;89416;-60
2023/11/20 04:13:58;;;;;;;;;;;;;;;;;;5045403;27;89743;-63
2023/11/20 04:16:23;;;;;;;;;;;;;;;;;;5045491;27;89292;-60
2023/11/20 04:18:49;;;;;;;;;;;;;;;;;;5048909;27;89567;-60
2023/11/20 04:21:14;;;;;;;;;;;;;;;;;;5045541;27;89330;-59
2023/11/20 04:23:39;;;;;;;;;;;;;;;;;;5043296;27;89647;-60
2023/11/20 04:26:04;;;;;;;;;;;;;;;;;;5044851;27;91101;-59
2023/11/20 04:28:31;;;;;;;;;;;;;;;;;;5042420;27;89949;-60
2023/11/20 04:30:56;;;;;;;;;;;;;;;;;;5045788;27;89631;-61
2023/11/20 04:33:23;;;;;;;;;;;;;;;;;;5044910;27;90720;-61
2023/11/20 04:35:50;;;;;;;;;;;;;;;;;;5043459;27;89161;-61
2023/11/20 04:38:16;;;;;;;;;;;;;;;;;;5045592;27;89318;-60
2023/11/20 04:40:42;;;;;;;;;;;;;;;;;;5047872;27;89658;-60
2023/11/20 04:43:07;;;;;;;;;;;;;;;;;;5045953;27;89572;-62
2023/11/20 04:45:32;;;;;;;;;;;;;;;;;;5046128;27;90237;-60
2023/11/20 04:47:57;;;;;;;;;;;;;;;;;;5049204;27;89525;-61
2023/11/20 04:50:23;;;;;;;;;;;;;;;;;;5048755;27;89113;-61
2023/11/20 04:52:48;;;;;;;;;;;;;;;;;;5048984;27;89694;-60
2023/11/20 04:55:13;;;;;;;;;;;;;;;;;;5047901;27;90327;-62
2023/11/20 04:57:38;;;;;;;;;;;;;;;;;;5048020;27;89190;-60
2023/11/20 05:00:04;;;;;;;;;;;;;;;;;;5047955;27;89529;-62
2023/11/20 05:02:29;;;;;;;;;;;;;;;;;;5051584;27;89203;-60
2023/11/20 05:04:55;;;;;;;;;;;;;;;;;;5049061;27;89590;-60
2023/11/20 05:07:20;;;;;;;;;;;;;;;;;;5049359;27;89441;-61
2023/11/20 05:09:45;;;;;;;;;;;;;;;;;;5048635;27;90123;-60
2023/11/20 05:12:11;;;;;;;;;;;;;;;;;;5048960;27;89533;-59
2023/11/20 05:14:36;;;;;;;;;;;;;;;;;;5048598;27;90316;-63
2023/11/20 05:17:01;;;;;;;;;;;;;;;;;;5048419;27;89123;-62
2023/11/20 05:19:27;;;;;;;;;;;;;;;;;;5049156;27;90528;-62
2023/11/20 05:21:52;;;;;;;;;;;;;;;;;;5048223;27;90237;-62
2023/11/20 05:24:17;;;;;;;;;;;;;;;;;;5051204;27;89685;-62
2023/11/20 05:26:42;;;;;;;;;;;;;;;;;;5048822;27;89675;-63
2023/11/20 05:29:08;;;;;;;;;;;;;;;;;;5031097;27;89793;-62
2023/11/20 05:31:33;;;;;;;;;;;;;;;;;;5048154;27;90517;-60
2023/11/20 05:33:58;;;;;;;;;;;;;;;;;;5028161;28;89056;-60
2023/11/20 05:36:24;;;;;;;;;;;;;;;;;;5028020;28;89058;-62
2023/11/20 05:38:49;;;;;;;;;;;;;;;;;;5044102;27;89487;-62
2023/11/20 05:41:14;;;;;;;;;;;;;;;;;;5048621;27;89073;-61
2023/11/20 05:43:39;;;;;;;;;;;;;;;;;;5051580;27;89044;-62
2023/11/20 05:46:05;;;;;;;;;;;;;;;;;;5048525;27;89213;-62
2023/11/20 05:48:31;;;;;;;;;;;;;;;;;;5048263;27;89464;-62
2023/11/20 05:50:56;;;;;;;;;;;;;;;;;;5047985;27;89518;-62
2023/11/20 05:53:21;;;;;;;;;;;;;;;;;;5048419;27;89121;-61
2023/11/20 05:55:47;;;;;;;;;;;;;;;;;;5048252;27;89268;-61
2023/11/20 05:58:12;;;;;;;;;;;;;;;;;;5048040;27;90909;-60
2023/11/20 06:00:37;;;;;;;;;;;;;;;;;;5047737;27;89416;-62
2023/11/20 06:03:02;;;;;;;;;;;;;;;;;;5047545;27;89471;-61
2023/11/20 06:05:28;;;;;;;;;;;;;;;;;;5050819;27;90561;-61
2023/11/20 06:07:53;;;;;;;;;;;;;;;;;;5048387;27;89632;-61
2023/11/20 06:10:18;;;;;;;;;;;;;;;;;;5048295;27;89668;-62
2023/11/20 06:12:43;;;;;;;;;;;;;;;;;;5047625;27;90170;-60
2023/11/20 06:15:09;;;;;;;;;;;;;;;;;;5047639;27;88908;-60
2023/11/20 06:17:34;;;;;;;;;;;;;;;;;;5047627;27;89783;-62
2023/11/20 06:19:59;;;;;;;;;;;;;;;;;;5048047;27;89790;-62
2023/11/20 06:22:24;;;;;;;;;;;;;;;;;;5036067;27;89442;-61
2023/11/20 06:24:50;;;;;;;;;;;;;;;;;;5045423;27;89179;-60
2023/11/20 06:27:15;;;;;;;;;;;;;;;;;;5049600;27;89523;-60
2023/11/20 06:29:41;;;;;;;;;;;;;;;;;;5047221;27;89401;-59
2023/11/20 06:32:06;;;;;;;;;;;;;;;;;;5047050;27;90051;-59
2023/11/20 06:34:32;;;;;;;;;;;;;;;;;;5047267;27;89166;-60
2023/11/20 06:36:57;;;;;;;;;;;;;;;;;;5047461;27;90490;-59
2023/11/20 06:39:23;;;;;;;;;;;;;;;;;;5046311;27;90668;-61
2023/11/20 06:41:50;;;;;;;;;;;;;;;;;;5047899;27;89677;-67
2023/11/20 06:44:15;;;;;;;;;;;;;;;;;;5040646;27;90686;-63
2023/11/20 06:46:40;;;;;;;;;;;;;;;;;;5037495;27;89441;-62
2023/11/20 06:49:06;;;;;;;;;;;;;;;;;;5042008;27;89543;-62
2023/11/20 06:51:32;;;;;;;;;;;;;;;;;;5036011;27;90177;-60
2023/11/20 06:53:57;;;;;;;;;;;;;;;;;;5028694;27;89159;-61
2023/11/20 06:56:22;;;;;;;;;;;;;;;;;;5037529;27;89360;-62
2023/11/20 06:58:48;;;;;;;;;;;;;;;;;;5037215;27;89183;-61
2023/11/20 07:01:13;;;;;;;;;;;;;;;;;;5036918;27;89746;-60
2023/11/20 07:03:44;;;;;;;;;;;;;;;;;;5028907;27;89629;-60
2023/11/20 07:06:11;;;;;;;;;;;;;;;;;;5034983;27;89233;-61
2023/11/20 07:08:36;;;;;;;;;;;;;;;;;;5036966;27;90080;-60
2023/11/20 07:11:01;;;;;;;;;;;;;;;;;;5031493;27;89460;-61
2023/11/20 07:13:27;;;;;;;;;;;;;;;;;;5036268;27;89954;-63
2023/11/20 07:15:52;;;;;;;;;;;;;;;;;;5029846;27;90745;-60
2023/11/20 07:18:17;;;;;;;;;;;;;;;;;;5031105;27;91947;-60
2023/11/20 07:20:43;;;;;;;;;;;;;;;;;;5032577;27;89665;-60
2023/11/20 07:23:08;;;;;;;;;;;;;;;;;;5036328;27;91106;-61
2023/11/20 07:25:34;;;;;;;;;;;;;;;;;;5017796;27;92258;-60
2023/11/20 07:28:02;;;;;;;;;;;;;;;;;;5037152;27;90505;-62
2023/11/20 07:30:30;;;;;;;;;;;;;;;;;;5037716;27;89480;-60
2023/11/20 07:32:55;;;;;;;;;;;;;;;;;;5039940;27;89690;-60
2023/11/20 07:35:20;;;;;;;;;;;;;;;;;;5034920;27;89773;-61
2023/11/20 07:37:45;;;;;;;;;;;;;;;;;;5034784;27;89554;-59
2023/11/20 07:40:11;;;;;;;;;;;;;;;;;;5034529;27;89017;-61
2023/11/20 07:42:40;;;;;;;;;;;;;;;;;;5033736;27;89351;-59
2023/11/20 07:45:05;;;;;;;;;;;;;;;;;;5043812;27;90175;-64
2023/11/20 07:47:31;;;;;;;;;;;;;;;;;;5038247;27;89502;-61
2023/11/20 07:49:56;;;;;;;;;;;;;;;;;;5040154;27;90782;-59
2023/11/20 07:52:21;;;;;;;;;;;;;;;;;;5019678;27;92172;-62
2023/11/20 07:54:47;;;;;;;;;;;;;;;;;;5033670;27;89520;-62
2023/11/20 07:57:15;;;;;;;;;;;;;;;;;;5035127;27;89438;-61
2023/11/20 07:59:40;;;;;;;;;;;;;;;;;;5035918;27;89053;-62
2023/11/20 08:02:07;;;;;;;;;;;;;;;;;;5039580;27;89615;-64
2023/11/20 08:04:33;;;;;;;;;;;;;;;;;;5039928;27;90179;-62
2023/11/20 08:06:58;;;;;;;;;;;;;;;;;;5042536;27;89583;-61
2023/11/20 08:09:23;;;;;;;;;;;;;;;;;;5041411;27;89350;-60
2023/11/20 08:11:48;;;;;;;;;;;;;;;;;;5042795;27;89641;-61
2023/11/20 08:14:15;;;;;;;;;;;;;;;;;;5043409;27;89686;-62
2023/11/20 08:16:41;;;;;;;;;;;;;;;;;;5042331;27;90101;-61
2023/11/20 08:19:06;;;;;;;;;;;;;;;;;;5040993;27;91282;-62
2023/11/20 08:21:31;;;;;;;;;;;;;;;;;;5046414;27;90160;-61
2023/11/20 08:23:56;;;;;;;;;;;;;;;;;;5046612;27;89455;-60
2023/11/20 08:26:22;;;;;;;;;;;;;;;;;;5047830;27;89413;-62
2023/11/20 08:28:47;;;;;;;;;;;;;;;;;;5039315;27;90795;-61
2023/11/20 08:31:13;;;;;;;;;;;;;;;;;;5041795;27;90390;-61
2023/11/20 08:33:39;;;;;;;;;;;;;;;;;;5038555;27;89060;-60
2023/11/20 08:36:06;;;;;;;;;;;;;;;;;;5044343;27;89422;-61
2023/11/20 08:38:32;;;;;;;;;;;;;;;;;;5042038;27;90435;-60
2023/11/20 08:40:58;;;;;;;;;;;;;;;;;;5038502;27;90786;-60
2023/11/20 08:43:23;;;;;;;;;;;;;;;;;;5036959;27;90266;-61
2023/11/20 08:45:48;;;;;;;;;;;;;;;;;;5038104;27;89421;-60
2023/11/20 08:48:15;;;;;;;;;;;;;;;;;;5042719;27;89594;-61
2023/11/20 08:50:40;;;;;;;;;;;;;;;;;;5039710;27;90403;-60
2023/11/20 08:53:06;;;;;;;;;;;;;;;;;;5035322;27;89718;-62
2023/11/20 08:55:31;;;;;;;;;;;;;;;;;;5042797;27;89900;-62
2023/11/20 08:57:57;;;;;;;;;;;;;;;;;;5045765;27;89204;-62
2023/11/20 09:00:24;;;;;;;;;;;;;;;;;;5042334;27;90782;-62
2023/11/20 09:02:49;;;;;;;;;;;;;;;;;;5028733;27;89435;-61
2023/11/20 09:05:15;;;;;;;;;;;;;;;;;;5038297;27;90153;-61
2023/11/20 09:07:43;;;;;;;;;;;;;;;;;;5039710;27;90252;-60
2023/11/20 09:10:12;;;;;;;;;;;;;;;;;;5040704;27;89864;-61
2023/11/20 09:12:39;;;;;;;;;;;;;;;;;;5041226;27;89780;-60
2023/11/20 09:15:04;;;;;;;;;;;;;;;;;;5029541;27;90940;-61
2023/11/20 09:17:30;;;;;;;;;;;;;;;;;;5036074;27;91848;-60
2023/11/20 09:19:56;;;;;;;;;;;;;;;;;;5037188;27;89662;-61
2023/11/20 09:22:21;;;;;;;;;;;;;;;;;;5032991;27;89920;-61
2023/11/20 09:24:46;;;;;;;;;;;;;;;;;;5031540;27;90283;-60
2023/11/20 09:27:13;;;;;;;;;;;;;;;;;;5038638;27;89878;-60
2023/11/20 09:29:39;;;;;;;;;;;;;;;;;;5038681;27;89225;-60
2023/11/20 09:32:04;;;;;;;;;;;;;;;;;;5037380;27;88999;-61
2023/11/20 09:34:30;;;;;;;;;;;;;;;;;;5037314;27;91912;-61
2023/11/20 09:36:55;;;;;;;;;;;;;;;;;;5038014;27;89764;-61
2023/11/20 09:39:20;;;;;;;;;;;;;;;;;;5036303;27;89098;-61
2023/11/20 09:41:46;;;;;;;;;;;;;;;;;;5042235;27;90572;-61
2023/11/20 09:44:12;;;;;;;;;;;;;;;;;;5041369;27;89538;-60
2023/11/20 09:46:40;;;;;;;;;;;;;;;;;;5041335;27;90850;-60
2023/11/20 09:49:08;;;;;;;;;;;;;;;;;;5042635;27;90147;-61
2023/11/20 09:51:35;;;;;;;;;;;;;;;;;;5043370;27;90854;-61
2023/11/20 09:54:03;;;;;;;;;;;;;;;;;;5034075;27;90222;-62
2023/11/20 09:56:28;;;;;;;;;;;;;;;;;;5034860;27;89610;-61
2023/11/20 09:58:53;;;;;;;;;;;;;;;;;;5041170;27;89335;-61
2023/11/20 10:01:19;;;;;;;;;;;;;;;;;;5046607;27;89473;-61
2023/11/20 10:03:45;;;;;;;;;;;;;;;;;;5042543;27;89633;-61
2023/11/20 10:06:17;;;;;;;;;;;;;;;;;;5035781;27;90788;-61
2023/11/20 10:08:46;;;;;;;;;;;;;;;;;;5036224;27;89131;-61
2023/11/20 10:11:13;;;;;;;;;;;;;;;;;;5036773;27;89471;-65
2023/11/20 10:13:39;;;;;;;;;;;;;;;;;;5035332;27;90271;-61
2023/11/20 10:16:07;;;;;;;;;;;;;;;;;;5034527;27;89679;-61
2023/11/20 10:18:32;;;;;;;;;;;;;;;;;;5042915;27;89120;-61
2023/11/20 10:20:57;;;;;;;;;;;;;;;;;;5039620;27;89713;-60
2023/11/20 10:23:23;;;;;;;;;;;;;;;;;;5036976;27;89735;-61
2023/11/20 10:25:48;;;;;;;;;;;;;;;;;;5035661;27;91179;-61
2023/11/20 10:28:14;;;;;;;;;;;;;;;;;;5044259;27;89676;-61
2023/11/20 10:30:45;;;;;;;;;;;;;;;;;;5035008;27;89023;-61
2023/11/20 10:33:14;;;;;;;;;;;;;;;;;;5038317;27;91450;-62
2023/11/20 10:35:39;;;;;;;;;;;;;;;;;;5021579;27;91970;-62
2023/11/20 10:38:07;;;;;;;;;;;;;;;;;;5039436;27;90433;-62
2023/11/20 10:40:32;;;;;;;;;;;;;;;;;;5039566;27;89470;-61
2023/11/20 10:43:00;;;;;;;;;;;;;;;;;;5035151;27;89426;-62
2023/11/20 10:45:25;;;;;;;;;;;;;;;;;;5037791;27;89601;-61
2023/11/20 10:47:51;;;;;;;;;;;;;;;;;;5038646;27;89946;-61
2023/11/20 10:50:17;;;;;;;;;;;;;;;;;;5035559;27;89400;-61
2023/11/20 10:52:44;;;;;;;;;;;;;;;;;;5035563;27;90502;-61
2023/11/20 10:55:14;;;;;;;;;;;;;;;;;;5034477;27;90168;-61
2023/11/20 10:57:39;;;;;;;;;;;;;;;;;;5037021;27;89588;-61
2023/11/20 11:00:10;;;;;;;;;;;;;;;;;;5036659;27;89573;-61
2023/11/20 11:02:36;;;;;;;;;;;;;;;;;;5043974;27;90521;-61
2023/11/20 11:05:06;;;;;;;;;;;;;;;;;;5037234;27;89287;-61
2023/11/20 11:07:33;;;;;;;;;;;;;;;;;;5041784;27;89591;-62
2023/11/20 11:09:59;;;;;;;;;;;;;;;;;;5039623;27;89608;-62
2023/11/20 11:12:26;;;;;;;;;;;;;;;;;;5035323;27;89129;-61
2023/11/20 11:14:51;;;;;;;;;;;;;;;;;;5042493;27;90378;-61
2023/11/20 11:17:20;;;;;;;;;;;;;;;;;;5038431;27;89503;-61
2023/11/20 11:19:48;;;;;;;;;;;;;;;;;;5030224;27;90601;-61
2023/11/20 11:22:20;;;;;;;;;;;;;;;;;;5040913;27;89614;-61
2023/11/20 11:24:46;;;;;;;;;;;;;;;;;;5044662;27;89851;-61
2023/11/20 11:27:21;;;;;;;;;;;;;;;;;;5039469;27;90128;-61
2023/11/20 11:29:50;;;;;;;;;;;;;;;;;;5040685;27;89284;-61
2023/11/20 11:32:21;;;;;;;;;;;;;;;;;;5041711;27;89527;-61
2023/11/20 11:35:02;;;;;;;;;;;;;;;;;;5039503;27;93673;-63
2023/11/20 11:37:33;;;;;;;;;;;;;;;;;;5030623;27;93157;-61
2023/11/20 11:40:14;;;;;;;;;;;;;;;;;;5036537;27;93308;-61
2023/11/20 11:42:43;;;;;;;;;;;;;;;;;;5024811;27;92694;-62
2023/11/20 11:45:13;;;;;;;;;;;;;;;;;;5034571;27;94693;-62
2023/11/20 11:47:44;;;;;;;;;;;;;;;;;;5032845;27;92820;-61
2023/11/20 11:50:09;;;;;;;;;;;;;;;;;;5039273;27;92351;-61
2023/11/20 11:52:35;;;;;;;;;;;;;;;;;;5037424;27;92898;-62
2023/11/20 11:55:13;;;;;;;;;;;;;;;;;;5033106;27;93290;-61
2023/11/20 11:57:39;;;;;;;;;;;;;;;;;;5037467;27;93793;-61
2023/11/20 12:00:10;;;;;;;;;;;;;;;;;;5031599;27;92951;-61
2023/11/20 12:02:51;;;;;;;;;;;;;;;;;;5034852;27;93492;-61
2023/11/20 12:05:19;;;;;;;;;;;;;;;;;;5041273;27;92833;-61
2023/11/20 12:07:45;;;;;;;;;;;;;;;;;;5039316;27;92415;-65
2023/11/20 12:10:11;;;;;;;;;;;;;;;;;;5031027;27;93811;-61
2023/11/20 12:12:54;;;;;;;;;;;;;;;;;;5043459;27;93191;-61
2023/11/20 12:15:38;;;;;;;;;;;;;;;;;;5036281;27;93887;-61
2023/11/20 12:18:14;;;;;;;;;;;;;;;;;;5037366;27;92672;-62
2023/11/20 12:20:43;;;;;;;;;;;;;;;;;;5034063;27;92729;-62
2023/11/20 12:23:27;;;;;;;;;;;;;;;;;;5029951;27;93777;-62
2023/11/20 12:25:56;;;;;;;;;;;;;;;;;;5035319;27;92930;-61
2023/11/20 12:28:22;;;;;;;;;;;;;;;;;;5033897;27;93112;-62
2023/11/20 12:30:48;;;;;;;;;;;;;;;;;;5037154;27;92581;-61
2023/11/20 12:33:13;;;;;;;;;;;;;;;;;;5031624;27;92921;-62
2023/11/20 12:35:39;;;;;;;;;;;;;;;;;;5040897;27;93316;-61
2023/11/20 12:38:05;;;;;;;;;;;;;;;;;;5035931;27;94707;-61
2023/11/20 12:40:31;;;;;;;;;;;;;;;;;;5035589;27;92860;-61
2023/11/20 12:42:56;;;;;;;;;;;;;;;;;;5032715;27;92588;-61
2023/11/20 12:45:22;;;;;;;;;;;;;;;;;;5024921;27;92728;-61
2023/11/20 12:47:47;;;;;;;;;;;;;;;;;;5030328;27;92714;-61
2023/11/20 12:50:15;;;;;;;;;;;;;;;;;;5031712;27;92556;-62
2023/11/20 12:52:41;;;;;;;;;;;;;;;;;;5030497;27;92851;-62
2023/11/20 12:55:07;;;;;;;;;;;;;;;;;;5028964;27;93556;-61
2023/11/20 12:57:33;;;;;;;;;;;;;;;;;;5042333;27;92522;-62
2023/11/20 12:59:59;;;;;;;;;;;;;;;;;;5031853;27;93720;-61
2023/11/20 13:02:27;;;;;;;;;;;;;;;;;;5026952;27;96732;-61
2023/11/20 13:04:52;;;;;;;;;;;;;;;;;;5029689;27;92880;-61
2023/11/20 13:07:20;;;;;;;;;;;;;;;;;;5034856;27;93210;-62
2023/11/20 13:09:45;;;;;;;;;;;;;;;;;;5035922;27;93590;-65
2023/11/20 13:12:12;;;;;;;;;;;;;;;;;;5033436;27;95375;-62
2023/11/20 13:14:55;;;;;;;;;;;;;;;;;;5030055;27;92624;-61
2023/11/20 13:17:21;;;;;;;;;;;;;;;;;;5041510;27;92631;-61
2023/11/20 13:19:46;;;;;;;;;;;;;;;;;;5040390;27;93336;-61
2023/11/20 13:22:12;;;;;;;;;;;;;;;;;;5035864;27;93534;-62
2023/11/20 13:24:50;;;;;;;;;;;;;;;;;;5030933;27;93817;-61
2023/11/20 13:27:16;;;;;;;;;;;;;;;;;;5037133;27;93136;-60
2023/11/20 13:29:42;;;;;;;;;;;;;;;;;;5032603;27;93692;-61
2023/11/20 13:32:22;;;;;;;;;;;;;;;;;;5035021;27;92889;-61
2023/11/20 13:34:47;;;;;;;;;;;;;;;;;;5035047;27;92743;-61
2023/11/20 13:37:13;;;;;;;;;;;;;;;;;;5040082;27;93619;-61
2023/11/20 13:39:38;;;;;;;;;;;;;;;;;;5038208;27;93710;-61
2023/11/20 13:42:05;;;;;;;;;;;;;;;;;;5044814;27;91473;-61
2023/11/20 13:44:30;;;;;;;;;;;;;;;;;;5030562;27;93792;-60
2023/11/20 13:46:55;;;;;;;;;;;;;;;;;;5036548;27;92494;-61
2023/11/20 13:49:23;;;;;;;;;;;;;;;;;;5042150;27;94233;-61
2023/11/20 13:51:48;;;;;;;;;;;;;;;;;;5041384;27;93769;-61
2023/11/20 13:54:14;;;;;;;;;;;;;;;;;;5037894;27;93890;-61
2023/11/20 13:56:39;;;;;;;;;;;;;;;;;;5037541;27;92350;-60
2023/11/20 13:59:08;;;;;;;;;;;;;;;;;;5040458;27;93470;-61
2023/11/20 14:01:33;;;;;;;;;;;;;;;;;;5037108;27;92689;-61
2023/11/20 14:03:58;;;;;;;;;;;;;;;;;;5034353;27;92574;-61
2023/11/20 14:06:24;;;;;;;;;;;;;;;;;;5039710;27;91945;-61
2023/11/20 14:08:49;;;;;;;;;;;;;;;;;;5033321;27;92538;-60
2023/11/20 14:11:15;;;;;;;;;;;;;;;;;;5031756;27;92731;-61
2023/11/20 14:13:40;;;;;;;;;;;;;;;;;;5038655;27;93593;-61
2023/11/20 14:16:11;;;;;;;;;;;;;;;;;;5030758;27;93186;-61
2023/11/20 14:18:36;;;;;;;;;;;;;;;;;;5032997;27;93801;-60
2023/11/20 14:21:01;;;;;;;;;;;;;;;;;;5032364;27;93577;-61
2023/11/20 14:23:27;;;;;;;;;;;;;;;;;;5038320;27;93329;-60
2023/11/20 14:25:52;;;;;;;;;;;;;;;;;;5034363;27;93962;-61
2023/11/20 14:28:17;;;;;;;;;;;;;;;;;;5032978;27;93579;-61
2023/11/20 14:30:42;;;;;;;;;;;;;;;;;;5033860;27;93640;-61
2023/11/20 14:33:11;;;;;;;;;;;;;;;;;;5030415;27;92577;-61
2023/11/20 14:35:37;;;;;;;;;;;;;;;;;;5036453;27;92609;-61
2023/11/20 14:38:02;;;;;;;;;;;;;;;;;;5023355;27;95015;-60
2023/11/20 14:40:28;;;;;;;;;;;;;;;;;;5029811;27;92764;-61
2023/11/20 14:42:53;;;;;;;;;;;;;;;;;;5032336;27;93245;-61
2023/11/20 15:24:54;;;;;;;;;;;;;;;;;;5024890;27;82678;-59
2023/11/20 15:27:20;;;;;;;;;;;;;;;;;;5013312;27;89064;-59
2023/11/20 15:29:45;;;;;;;;;;;;;;;;;;5013611;27;90222;-59
2023/11/20 15:32:11;;;;;;;;;;;;;;;;;;5017865;28;89232;-62
2023/11/20 15:34:36;;;;;;;;;;;;;;;;;;5014322;28;90084;-61
2023/11/20 15:37:01;;;;;;;;;;;;;;;;;;5016368;27;89332;-60
2023/11/20 15:39:26;;;;;;;;;;;;;;;;;;5013102;28;89363;-60
2023/11/20 15:41:51;;;;;;;;;;;;;;;;;;5022905;27;89502;-60
2023/11/20 15:44:17;;;;;;;;;;;;;;;;;;5021883;28;89507;-60
2023/11/20 15:46:42;;;;;;;;;;;;;;;;;;5025590;27;89887;-60
2023/11/20 15:49:10;;;;;;;;;;;;;;;;;;5015724;27;90833;-60
2023/11/20 15:51:37;;;;;;;;;;;;;;;;;;5018435;27;89751;-61
2023/11/20 15:54:04;;;;;;;;;;;;;;;;;;5016276;28;89546;-60
2023/11/20 15:56:29;;;;;;;;;;;;;;;;;;5017621;27;90039;-60
2023/11/20 15:58:54;;;;;;;;;;;;;;;;;;5009362;27;89562;-59
2023/11/20 16:01:21;;;;;;;;;;;;;;;;;;5020385;27;90768;-60
2023/11/20 16:03:47;;;;;;;;;;;;;;;;;;5018452;28;89745;-61
2023/11/20 16:06:12;;;;;;;;;;;;;;;;;;5026418;27;89165;-60
2023/11/20 16:08:37;;;;;;;;;;;;;;;;;;5020194;27;90636;-61
2023/11/20 16:11:04;;;;;;;;;;;;;;;;;;5017695;27;89425;-61
2023/11/20 16:13:30;;;;;;;;;;;;;;;;;;5019559;28;90904;-61
2023/11/20 16:15:55;;;;;;;;;;;;;;;;;;5020369;27;89513;-61
2023/11/20 16:18:21;;;;;;;;;;;;;;;;;;5021022;28;89304;-61
2023/11/20 16:20:46;;;;;;;;;;;;;;;;;;5022483;27;89715;-61
2023/11/20 16:23:13;;;;;;;;;;;;;;;;;;5019997;27;89835;-60
2023/11/20 16:25:39;;;;;;;;;;;;;;;;;;5021760;27;90248;-61
2023/11/20 16:28:04;;;;;;;;;;;;;;;;;;5022331;27;89488;-60
2023/11/20 16:30:29;;;;;;;;;;;;;;;;;;5020303;27;89651;-61
2023/11/20 16:32:55;;;;;;;;;;;;;;;;;;5020630;28;89952;-61
2023/11/20 16:35:23;;;;;;;;;;;;;;;;;;5013451;27;89113;-61
2023/11/20 16:37:48;;;;;;;;;;;;;;;;;;5004020;28;90020;-61
2023/11/20 16:40:14;;;;;;;;;;;;;;;;;;5007688;28;89943;-62
2023/11/20 16:42:39;;;;;;;;;;;;;;;;;;5005513;28;90465;-61
2023/11/20 16:45:06;;;;;;;;;;;;;;;;;;5008743;28;89100;-61
2023/11/20 16:47:31;;;;;;;;;;;;;;;;;;5007182;28;89621;-60
2023/11/20 16:49:57;;;;;;;;;;;;;;;;;;5009180;28;89536;-60
2023/11/20 16:52:22;;;;;;;;;;;;;;;;;;5008056;28;89805;-61
2023/11/20 16:54:47;;;;;;;;;;;;;;;;;;5005260;28;89511;-62
2023/11/20 16:57:13;;;;;;;;;;;;;;;;;;5007136;28;89213;-61
2023/11/20 16:59:39;;;;;;;;;;;;;;;;;;5003164;28;89442;-60
2023/11/20 17:02:04;;;;;;;;;;;;;;;;;;5004968;28;89789;-60
2023/11/20 17:04:30;;;;;;;;;;;;;;;;;;5007894;28;89024;-60
2023/11/20 17:06:56;;;;;;;;;;;;;;;;;;5012084;28;90971;-61
2023/11/20 17:09:21;;;;;;;;;;;;;;;;;;5006439;28;90425;-60
2023/11/20 17:11:46;;;;;;;;;;;;;;;;;;5011831;28;89523;-61
2023/11/20 17:14:13;;;;;;;;;;;;;;;;;;5000645;28;89099;-60
2023/11/20 17:16:38;;;;;;;;;;;;;;;;;;5008836;28;89799;-60
2023/11/20 17:19:04;;;;;;;;;;;;;;;;;;5003590;28;90100;-60